sensor_id;sensor_type;location;lat;lon;timestamp;pressure;altitude;pressure_sealevel;temperature
16956;BMP180;8594;52.052;8.354;2023-09-08T00:00:19;101004.00;;;26.00
16956;BMP180;8594;52.052;8.354;2023-09-08T00:02:46;101004.00;;;26.10
16956;BMP180;8594;52.052;8.354;2023-09-08T00:05:15;100993.00;;;26.00
16956;BMP180;8594;52.052;8.354;2023-09-08T00:07:41;101006.00;;;25.90
16956;BMP180;8594;52.052;8.354;2023-09-08T00:10:09;100999.00;;;25.90
16956;BMP180;8594;52.052;8.354;2023-09-08T00:12:36;100998.00;;;26.00
16956;BMP180;8594;52.052;8.354;2023-09-08T00:15:05;100996.00;;;26.10
16956;BMP180;8594;52.052;8.354;2023-09-08T00:17:32;101003.00;;;25.90
16956;BMP180;8594;52.052;8.354;2023-09-08T00:19:59;100998.00;;;25.90
16956;BMP180;8594;52.052;8.354;2023-09-08T00:22:27;100992.00;;;25.80
16956;BMP180;8594;52.052;8.354;2023-09-08T00:24:54;100998.00;;;25.90
16956;BMP180;8594;52.052;8.354;2023-09-08T00:27:21;100988.00;;;25.80
16956;BMP180;8594;52.052;8.354;2023-09-08T00:29:48;100990.00;;;25.80
16956;BMP180;8594;52.052;8.354;2023-09-08T00:32:16;100985.00;;;25.70
16956;BMP180;8594;52.052;8.354;2023-09-08T00:34:43;100995.00;;;25.50
16956;BMP180;8594;52.052;8.354;2023-09-08T00:37:10;100993.00;;;25.40
16956;BMP180;8594;52.052;8.354;2023-09-08T00:39:38;100996.00;;;25.00
16956;BMP180;8594;52.052;8.354;2023-09-08T00:42:06;100997.00;;;25.20
16956;BMP180;8594;52.052;8.354;2023-09-08T00:44:34;100992.00;;;25.10
16956;BMP180;8594;52.052;8.354;2023-09-08T00:47:01;100993.00;;;25.30
16956;BMP180;8594;52.052;8.354;2023-09-08T00:49:28;100995.00;;;25.30
16956;BMP180;8594;52.052;8.354;2023-09-08T00:51:55;100996.00;;;25.10
16956;BMP180;8594;52.052;8.354;2023-09-08T00:54:22;100995.00;;;25.20
16956;BMP180;8594;52.052;8.354;2023-09-08T00:56:56;100996.00;;;25.10
16956;BMP180;8594;52.052;8.354;2023-09-08T00:59:24;100994.00;;;25.00
16956;BMP180;8594;52.052;8.354;2023-09-08T01:01:52;100991.00;;;25.10
16956;BMP180;8594;52.052;8.354;2023-09-08T01:04:20;100996.00;;;25.10
16956;BMP180;8594;52.052;8.354;2023-09-08T01:06:48;100992.00;;;25.20
16956;BMP180;8594;52.052;8.354;2023-09-08T01:09:16;100996.00;;;25.30
16956;BMP180;8594;52.052;8.354;2023-09-08T01:11:43;100993.00;;;24.80
16956;BMP180;8594;52.052;8.354;2023-09-08T01:14:13;100989.00;;;24.90
16956;BMP180;8594;52.052;8.354;2023-09-08T01:16:40;100992.00;;;24.80
16956;BMP180;8594;52.052;8.354;2023-09-08T01:19:13;100989.00;;;24.60
16956;BMP180;8594;52.052;8.354;2023-09-08T01:22:15;100994.00;;;24.30
16956;BMP180;8594;52.052;8.354;2023-09-08T01:25:15;100987.00;;;24.50
16956;BMP180;8594;52.052;8.354;2023-09-08T01:27:47;100989.00;;;24.20
16956;BMP180;8594;52.052;8.354;2023-09-08T01:30:16;100993.00;;;24.30
16956;BMP180;8594;52.052;8.354;2023-09-08T01:32:44;100983.00;;;24.50
16956;BMP180;8594;52.052;8.354;2023-09-08T01:35:11;100977.00;;;24.00
16956;BMP180;8594;52.052;8.354;2023-09-08T01:37:44;100988.00;;;23.90
16956;BMP180;8594;52.052;8.354;2023-09-08T01:40:13;100983.00;;;24.40
16956;BMP180;8594;52.052;8.354;2023-09-08T01:42:41;100981.00;;;24.40
16956;BMP180;8594;52.052;8.354;2023-09-08T01:45:08;100981.00;;;24.60
16956;BMP180;8594;52.052;8.354;2023-09-08T01:47:37;100977.00;;;24.50
16956;BMP180;8594;52.052;8.354;2023-09-08T01:50:05;100981.00;;;24.60
16956;BMP180;8594;52.052;8.354;2023-09-08T01:52:32;100973.00;;;24.30
16956;BMP180;8594;52.052;8.354;2023-09-08T01:54:58;100980.00;;;24.20
16956;BMP180;8594;52.052;8.354;2023-09-08T01:57:26;100979.00;;;23.90
16956;BMP180;8594;52.052;8.354;2023-09-08T01:59:53;100972.00;;;23.50
16956;BMP180;8594;52.052;8.354;2023-09-08T02:02:20;100972.00;;;23.40
16956;BMP180;8594;52.052;8.354;2023-09-08T02:04:47;100959.00;;;23.60
16956;BMP180;8594;52.052;8.354;2023-09-08T02:07:14;100956.00;;;23.20
16956;BMP180;8594;52.052;8.354;2023-09-08T02:09:41;100959.00;;;23.30
16956;BMP180;8594;52.052;8.354;2023-09-08T02:12:08;100948.00;;;23.30
16956;BMP180;8594;52.052;8.354;2023-09-08T02:14:36;100957.00;;;23.10
16956;BMP180;8594;52.052;8.354;2023-09-08T02:17:04;100960.00;;;23.50
16956;BMP180;8594;52.052;8.354;2023-09-08T02:19:32;100954.00;;;23.30
16956;BMP180;8594;52.052;8.354;2023-09-08T02:21:58;100955.00;;;23.40
16956;BMP180;8594;52.052;8.354;2023-09-08T02:24:25;100951.00;;;23.30
16956;BMP180;8594;52.052;8.354;2023-09-08T02:26:53;100950.00;;;23.70
16956;BMP180;8594;52.052;8.354;2023-09-08T02:29:20;100954.00;;;24.00
16956;BMP180;8594;52.052;8.354;2023-09-08T02:31:49;100958.00;;;24.20
16956;BMP180;8594;52.052;8.354;2023-09-08T02:34:16;100952.00;;;24.40
16956;BMP180;8594;52.052;8.354;2023-09-08T02:36:43;100951.00;;;24.30
16956;BMP180;8594;52.052;8.354;2023-09-08T02:39:12;100953.00;;;24.40
16956;BMP180;8594;52.052;8.354;2023-09-08T02:41:38;100949.00;;;24.50
16956;BMP180;8594;52.052;8.354;2023-09-08T02:44:05;100954.00;;;24.50
16956;BMP180;8594;52.052;8.354;2023-09-08T02:46:32;100944.00;;;24.50
16956;BMP180;8594;52.052;8.354;2023-09-08T02:49:00;100949.00;;;24.50
16956;BMP180;8594;52.052;8.354;2023-09-08T02:51:28;100947.00;;;24.50
16956;BMP180;8594;52.052;8.354;2023-09-08T02:53:54;100949.00;;;24.50
16956;BMP180;8594;52.052;8.354;2023-09-08T02:56:21;100944.00;;;24.50
16956;BMP180;8594;52.052;8.354;2023-09-08T02:58:48;100943.00;;;24.40
16956;BMP180;8594;52.052;8.354;2023-09-08T03:01:17;100950.00;;;24.40
16956;BMP180;8594;52.052;8.354;2023-09-08T03:03:47;100945.00;;;24.40
16956;BMP180;8594;52.052;8.354;2023-09-08T03:06:18;100946.00;;;24.20
16956;BMP180;8594;52.052;8.354;2023-09-08T03:08:45;100948.00;;;24.30
16956;BMP180;8594;52.052;8.354;2023-09-08T03:11:12;100951.00;;;24.20
16956;BMP180;8594;52.052;8.354;2023-09-08T03:13:39;100941.00;;;24.30
16956;BMP180;8594;52.052;8.354;2023-09-08T03:16:08;100943.00;;;24.10
16956;BMP180;8594;52.052;8.354;2023-09-08T03:18:37;100941.00;;;24.30
16956;BMP180;8594;52.052;8.354;2023-09-08T03:21:06;100940.00;;;24.20
16956;BMP180;8594;52.052;8.354;2023-09-08T03:23:37;100942.00;;;24.10
16956;BMP180;8594;52.052;8.354;2023-09-08T03:26:05;100943.00;;;23.90
16956;BMP180;8594;52.052;8.354;2023-09-08T03:28:33;100940.00;;;24.00
16956;BMP180;8594;52.052;8.354;2023-09-08T03:31:00;100935.00;;;23.70
16956;BMP180;8594;52.052;8.354;2023-09-08T03:33:27;100933.00;;;23.90
16956;BMP180;8594;52.052;8.354;2023-09-08T03:35:54;100928.00;;;23.90
16956;BMP180;8594;52.052;8.354;2023-09-08T03:38:22;100929.00;;;23.90
16956;BMP180;8594;52.052;8.354;2023-09-08T03:40:50;100928.00;;;24.10
16956;BMP180;8594;52.052;8.354;2023-09-08T03:43:17;100928.00;;;24.10
16956;BMP180;8594;52.052;8.354;2023-09-08T03:45:44;100932.00;;;23.90
16956;BMP180;8594;52.052;8.354;2023-09-08T03:48:11;100936.00;;;23.80
16956;BMP180;8594;52.052;8.354;2023-09-08T03:50:38;100925.00;;;23.90
16956;BMP180;8594;52.052;8.354;2023-09-08T03:53:04;100933.00;;;23.80
16956;BMP180;8594;52.052;8.354;2023-09-08T03:55:31;100927.00;;;23.80
16956;BMP180;8594;52.052;8.354;2023-09-08T03:58:00;100925.00;;;23.70
16956;BMP180;8594;52.052;8.354;2023-09-08T04:00:27;100936.00;;;23.70
16956;BMP180;8594;52.052;8.354;2023-09-08T04:02:54;100933.00;;;23.60
16956;BMP180;8594;52.052;8.354;2023-09-08T04:05:21;100931.00;;;23.50
16956;BMP180;8594;52.052;8.354;2023-09-08T04:07:48;100922.00;;;23.50
16956;BMP180;8594;52.052;8.354;2023-09-08T04:10:15;100928.00;;;23.20
16956;BMP180;8594;52.052;8.354;2023-09-08T04:12:42;100926.00;;;23.20
16956;BMP180;8594;52.052;8.354;2023-09-08T04:15:11;100930.00;;;23.40
16956;BMP180;8594;52.052;8.354;2023-09-08T04:17:38;100930.00;;;23.60
16956;BMP180;8594;52.052;8.354;2023-09-08T04:20:06;100926.00;;;23.50
16956;BMP180;8594;52.052;8.354;2023-09-08T04:22:34;100925.00;;;23.50
16956;BMP180;8594;52.052;8.354;2023-09-08T04:25:01;100926.00;;;23.60
16956;BMP180;8594;52.052;8.354;2023-09-08T04:27:28;100943.00;;;23.40
16956;BMP180;8594;52.052;8.354;2023-09-08T04:29:55;100934.00;;;23.60
16956;BMP180;8594;52.052;8.354;2023-09-08T04:32:23;100933.00;;;23.40
16956;BMP180;8594;52.052;8.354;2023-09-08T04:34:50;100931.00;;;23.10
16956;BMP180;8594;52.052;8.354;2023-09-08T04:37:16;100933.00;;;23.20
16956;BMP180;8594;52.052;8.354;2023-09-08T04:39:43;100938.00;;;23.30
16956;BMP180;8594;52.052;8.354;2023-09-08T04:42:10;100937.00;;;23.30
16956;BMP180;8594;52.052;8.354;2023-09-08T04:44:38;100932.00;;;23.50
16956;BMP180;8594;52.052;8.354;2023-09-08T04:47:05;100923.00;;;23.20
16956;BMP180;8594;52.052;8.354;2023-09-08T04:49:33;100930.00;;;22.90
16956;BMP180;8594;52.052;8.354;2023-09-08T04:52:00;100931.00;;;22.60
16956;BMP180;8594;52.052;8.354;2023-09-08T04:54:27;100929.00;;;22.90
16956;BMP180;8594;52.052;8.354;2023-09-08T04:56:54;100941.00;;;22.80
16956;BMP180;8594;52.052;8.354;2023-09-08T04:59:21;100934.00;;;22.90
16956;BMP180;8594;52.052;8.354;2023-09-08T05:01:49;100938.00;;;23.10
16956;BMP180;8594;52.052;8.354;2023-09-08T05:04:17;100940.00;;;23.10
16956;BMP180;8594;52.052;8.354;2023-09-08T05:06:46;100930.00;;;23.20
16956;BMP180;8594;52.052;8.354;2023-09-08T05:09:13;100929.00;;;23.20
16956;BMP180;8594;52.052;8.354;2023-09-08T05:11:40;100935.00;;;23.10
16956;BMP180;8594;52.052;8.354;2023-09-08T05:14:07;100934.00;;;23.40
16956;BMP180;8594;52.052;8.354;2023-09-08T05:16:34;100936.00;;;23.50
16956;BMP180;8594;52.052;8.354;2023-09-08T05:19:05;100938.00;;;23.40
16956;BMP180;8594;52.052;8.354;2023-09-08T05:21:34;100938.00;;;23.20
16956;BMP180;8594;52.052;8.354;2023-09-08T05:24:02;100937.00;;;23.20
16956;BMP180;8594;52.052;8.354;2023-09-08T05:26:29;100939.00;;;23.20
16956;BMP180;8594;52.052;8.354;2023-09-08T05:28:56;100930.00;;;22.90
16956;BMP180;8594;52.052;8.354;2023-09-08T05:31:23;100938.00;;;23.10
16956;BMP180;8594;52.052;8.354;2023-09-08T05:33:50;100932.00;;;23.20
16956;BMP180;8594;52.052;8.354;2023-09-08T05:36:17;100936.00;;;23.30
16956;BMP180;8594;52.052;8.354;2023-09-08T05:38:44;100929.00;;;23.40
16956;BMP180;8594;52.052;8.354;2023-09-08T05:41:12;100931.00;;;23.90
16956;BMP180;8594;52.052;8.354;2023-09-08T05:43:39;100927.00;;;24.30
16956;BMP180;8594;52.052;8.354;2023-09-08T05:46:06;100929.00;;;24.50
16956;BMP180;8594;52.052;8.354;2023-09-08T05:48:33;100932.00;;;24.30
16956;BMP180;8594;52.052;8.354;2023-09-08T05:51:00;100928.00;;;24.60
16956;BMP180;8594;52.052;8.354;2023-09-08T05:53:27;100932.00;;;24.70
16956;BMP180;8594;52.052;8.354;2023-09-08T05:55:54;100933.00;;;24.70
16956;BMP180;8594;52.052;8.354;2023-09-08T05:58:22;100929.00;;;24.80
16956;BMP180;8594;52.052;8.354;2023-09-08T06:00:52;100928.00;;;25.00
16956;BMP180;8594;52.052;8.354;2023-09-08T06:03:19;100931.00;;;24.80
16956;BMP180;8594;52.052;8.354;2023-09-08T06:05:46;100930.00;;;24.90
16956;BMP180;8594;52.052;8.354;2023-09-08T06:08:13;100928.00;;;24.70
16956;BMP180;8594;52.052;8.354;2023-09-08T06:10:40;100930.00;;;25.10
16956;BMP180;8594;52.052;8.354;2023-09-08T06:13:07;100928.00;;;25.20
16956;BMP180;8594;52.052;8.354;2023-09-08T06:15:35;100928.00;;;25.50
16956;BMP180;8594;52.052;8.354;2023-09-08T06:18:02;100930.00;;;25.50
16956;BMP180;8594;52.052;8.354;2023-09-08T06:20:29;100928.00;;;25.20
16956;BMP180;8594;52.052;8.354;2023-09-08T06:22:56;100928.00;;;25.90
16956;BMP180;8594;52.052;8.354;2023-09-08T06:25:23;100917.00;;;26.10
16956;BMP180;8594;52.052;8.354;2023-09-08T06:27:50;100911.00;;;26.50
16956;BMP180;8594;52.052;8.354;2023-09-08T06:30:17;100921.00;;;26.80
16956;BMP180;8594;52.052;8.354;2023-09-08T06:32:46;100918.00;;;27.00
16956;BMP180;8594;52.052;8.354;2023-09-08T06:35:13;100926.00;;;27.20
16956;BMP180;8594;52.052;8.354;2023-09-08T06:37:40;100925.00;;;27.40
16956;BMP180;8594;52.052;8.354;2023-09-08T06:40:07;100925.00;;;27.10
16956;BMP180;8594;52.052;8.354;2023-09-08T06:42:34;100924.00;;;27.40
16956;BMP180;8594;52.052;8.354;2023-09-08T06:45:01;100926.00;;;27.90
16956;BMP180;8594;52.052;8.354;2023-09-08T06:47:28;100928.00;;;27.20
16956;BMP180;8594;52.052;8.354;2023-09-08T06:49:56;100925.00;;;27.90
16956;BMP180;8594;52.052;8.354;2023-09-08T06:52:23;100921.00;;;28.10
16956;BMP180;8594;52.052;8.354;2023-09-08T06:54:50;100926.00;;;27.90
16956;BMP180;8594;52.052;8.354;2023-09-08T06:57:18;100918.00;;;28.30
16956;BMP180;8594;52.052;8.354;2023-09-08T06:59:46;100933.00;;;28.60
16956;BMP180;8594;52.052;8.354;2023-09-08T07:02:13;100932.00;;;28.30
16956;BMP180;8594;52.052;8.354;2023-09-08T07:04:40;100931.00;;;28.40
16956;BMP180;8594;52.052;8.354;2023-09-08T07:07:08;100925.00;;;28.30
16956;BMP180;8594;52.052;8.354;2023-09-08T07:09:36;100935.00;;;29.00
16956;BMP180;8594;52.052;8.354;2023-09-08T07:12:05;100932.00;;;28.70
16956;BMP180;8594;52.052;8.354;2023-09-08T07:14:32;100931.00;;;28.80
16956;BMP180;8594;52.052;8.354;2023-09-08T07:16:59;100932.00;;;29.00
16956;BMP180;8594;52.052;8.354;2023-09-08T07:19:26;100937.00;;;29.00
16956;BMP180;8594;52.052;8.354;2023-09-08T07:21:53;100936.00;;;29.40
16956;BMP180;8594;52.052;8.354;2023-09-08T07:24:21;100940.00;;;29.50
16956;BMP180;8594;52.052;8.354;2023-09-08T07:26:49;100945.00;;;28.80
16956;BMP180;8594;52.052;8.354;2023-09-08T07:29:16;100937.00;;;29.00
16956;BMP180;8594;52.052;8.354;2023-09-08T07:31:43;100937.00;;;29.20
16956;BMP180;8594;52.052;8.354;2023-09-08T07:34:10;100940.00;;;29.40
16956;BMP180;8594;52.052;8.354;2023-09-08T07:36:37;100939.00;;;29.80
16956;BMP180;8594;52.052;8.354;2023-09-08T07:39:04;100946.00;;;29.80
16956;BMP180;8594;52.052;8.354;2023-09-08T07:41:32;100933.00;;;29.20
16956;BMP180;8594;52.052;8.354;2023-09-08T07:44:00;100944.00;;;29.70
16956;BMP180;8594;52.052;8.354;2023-09-08T07:46:27;100936.00;;;30.10
16956;BMP180;8594;52.052;8.354;2023-09-08T07:48:53;100943.00;;;29.60
16956;BMP180;8594;52.052;8.354;2023-09-08T07:51:20;100944.00;;;29.80
16956;BMP180;8594;52.052;8.354;2023-09-08T07:53:47;100940.00;;;29.60
16956;BMP180;8594;52.052;8.354;2023-09-08T07:56:14;100946.00;;;29.90
16956;BMP180;8594;52.052;8.354;2023-09-08T07:58:42;100942.00;;;29.50
16956;BMP180;8594;52.052;8.354;2023-09-08T08:01:09;100947.00;;;29.70
16956;BMP180;8594;52.052;8.354;2023-09-08T08:03:36;100941.00;;;30.70
16956;BMP180;8594;52.052;8.354;2023-09-08T08:06:03;100944.00;;;30.30
16956;BMP180;8594;52.052;8.354;2023-09-08T08:08:30;100944.00;;;30.10
16956;BMP180;8594;52.052;8.354;2023-09-08T08:10:57;100949.00;;;30.20
16956;BMP180;8594;52.052;8.354;2023-09-08T08:13:24;100941.00;;;30.70
16956;BMP180;8594;52.052;8.354;2023-09-08T08:15:52;100945.00;;;31.00
16956;BMP180;8594;52.052;8.354;2023-09-08T08:18:19;100944.00;;;30.80
16956;BMP180;8594;52.052;8.354;2023-09-08T08:20:46;100953.00;;;30.70
16956;BMP180;8594;52.052;8.354;2023-09-08T08:23:14;100952.00;;;30.80
16956;BMP180;8594;52.052;8.354;2023-09-08T08:25:41;100958.00;;;30.30
16956;BMP180;8594;52.052;8.354;2023-09-08T08:28:08;100956.00;;;30.20
16956;BMP180;8594;52.052;8.354;2023-09-08T08:30:35;100958.00;;;30.40
16956;BMP180;8594;52.052;8.354;2023-09-08T08:33:03;100955.00;;;30.50
16956;BMP180;8594;52.052;8.354;2023-09-08T08:35:30;100946.00;;;30.90
16956;BMP180;8594;52.052;8.354;2023-09-08T08:37:59;100945.00;;;30.40
16956;BMP180;8594;52.052;8.354;2023-09-08T08:40:26;100940.00;;;30.40
16956;BMP180;8594;52.052;8.354;2023-09-08T08:42:55;100944.00;;;30.90
16956;BMP180;8594;52.052;8.354;2023-09-08T08:45:24;100951.00;;;30.70
16956;BMP180;8594;52.052;8.354;2023-09-08T08:47:52;100938.00;;;30.90
16956;BMP180;8594;52.052;8.354;2023-09-08T08:50:20;100950.00;;;30.70
16956;BMP180;8594;52.052;8.354;2023-09-08T08:52:47;100945.00;;;31.00
16956;BMP180;8594;52.052;8.354;2023-09-08T08:55:15;100945.00;;;31.60
16956;BMP180;8594;52.052;8.354;2023-09-08T08:57:43;100946.00;;;31.00
16956;BMP180;8594;52.052;8.354;2023-09-08T09:00:12;100940.00;;;31.40
16956;BMP180;8594;52.052;8.354;2023-09-08T09:02:43;100940.00;;;31.90
16956;BMP180;8594;52.052;8.354;2023-09-08T09:05:11;100939.00;;;31.90
16956;BMP180;8594;52.052;8.354;2023-09-08T09:07:42;100945.00;;;31.60
16956;BMP180;8594;52.052;8.354;2023-09-08T09:10:09;100937.00;;;31.80
16956;BMP180;8594;52.052;8.354;2023-09-08T09:12:38;100933.00;;;32.10
16956;BMP180;8594;52.052;8.354;2023-09-08T09:15:06;100939.00;;;32.30
16956;BMP180;8594;52.052;8.354;2023-09-08T09:17:34;100937.00;;;31.90
16956;BMP180;8594;52.052;8.354;2023-09-08T09:20:16;100941.00;;;32.20
16956;BMP180;8594;52.052;8.354;2023-09-08T09:22:44;100933.00;;;32.40
16956;BMP180;8594;52.052;8.354;2023-09-08T09:25:21;100933.00;;;32.10
16956;BMP180;8594;52.052;8.354;2023-09-08T09:27:51;100934.00;;;32.50
16956;BMP180;8594;52.052;8.354;2023-09-08T09:30:19;100930.00;;;32.40
16956;BMP180;8594;52.052;8.354;2023-09-08T09:32:45;100936.00;;;32.50
16956;BMP180;8594;52.052;8.354;2023-09-08T09:35:15;100938.00;;;32.40
16956;BMP180;8594;52.052;8.354;2023-09-08T09:37:43;100936.00;;;32.10
16956;BMP180;8594;52.052;8.354;2023-09-08T09:40:10;100933.00;;;32.30
16956;BMP180;8594;52.052;8.354;2023-09-08T09:42:38;100933.00;;;32.40
16956;BMP180;8594;52.052;8.354;2023-09-08T09:45:07;100928.00;;;32.60
16956;BMP180;8594;52.052;8.354;2023-09-08T09:47:35;100929.00;;;32.40
16956;BMP180;8594;52.052;8.354;2023-09-08T09:50:03;100927.00;;;32.60
16956;BMP180;8594;52.052;8.354;2023-09-08T09:52:30;100921.00;;;32.80
16956;BMP180;8594;52.052;8.354;2023-09-08T09:54:59;100921.00;;;33.40
16956;BMP180;8594;52.052;8.354;2023-09-08T09:57:27;100925.00;;;33.10
16956;BMP180;8594;52.052;8.354;2023-09-08T09:59:56;100925.00;;;33.20
16956;BMP180;8594;52.052;8.354;2023-09-08T10:02:25;100926.00;;;33.70
16956;BMP180;8594;52.052;8.354;2023-09-08T10:04:53;100925.00;;;33.30
16956;BMP180;8594;52.052;8.354;2023-09-08T10:07:22;100923.00;;;33.40
16956;BMP180;8594;52.052;8.354;2023-09-08T10:09:49;100919.00;;;33.40
16956;BMP180;8594;52.052;8.354;2023-09-08T10:12:18;100917.00;;;33.60
16956;BMP180;8594;52.052;8.354;2023-09-08T10:14:48;100915.00;;;33.80
16956;BMP180;8594;52.052;8.354;2023-09-08T10:17:25;100916.00;;;34.10
16956;BMP180;8594;52.052;8.354;2023-09-08T10:20:00;100916.00;;;33.70
16956;BMP180;8594;52.052;8.354;2023-09-08T10:22:36;100920.00;;;34.00
16956;BMP180;8594;52.052;8.354;2023-09-08T10:25:07;100909.00;;;34.30
16956;BMP180;8594;52.052;8.354;2023-09-08T10:27:37;100909.00;;;33.90
16956;BMP180;8594;52.052;8.354;2023-09-08T10:30:06;100914.00;;;34.10
16956;BMP180;8594;52.052;8.354;2023-09-08T10:32:36;100902.00;;;34.40
16956;BMP180;8594;52.052;8.354;2023-09-08T10:35:04;100912.00;;;34.40
16956;BMP180;8594;52.052;8.354;2023-09-08T10:37:31;100908.00;;;34.30
16956;BMP180;8594;52.052;8.354;2023-09-08T10:40:23;100909.00;;;34.20
16956;BMP180;8594;52.052;8.354;2023-09-08T10:43:06;100906.00;;;34.10
16956;BMP180;8594;52.052;8.354;2023-09-08T10:45:33;100906.00;;;34.40
16956;BMP180;8594;52.052;8.354;2023-09-08T10:48:01;100914.00;;;34.60
16956;BMP180;8594;52.052;8.354;2023-09-08T10:50:34;100909.00;;;34.20
16956;BMP180;8594;52.052;8.354;2023-09-08T10:53:07;100915.00;;;34.50
16956;BMP180;8594;52.052;8.354;2023-09-08T10:55:37;100912.00;;;34.10
16956;BMP180;8594;52.052;8.354;2023-09-08T10:58:05;100907.00;;;34.40
16956;BMP180;8594;52.052;8.354;2023-09-08T11:00:51;100918.00;;;34.10
16956;BMP180;8594;52.052;8.354;2023-09-08T11:03:27;100910.00;;;34.60
16956;BMP180;8594;52.052;8.354;2023-09-08T11:05:56;100914.00;;;33.90
16956;BMP180;8594;52.052;8.354;2023-09-08T11:08:23;100922.00;;;33.90
16956;BMP180;8594;52.052;8.354;2023-09-08T11:10:50;100913.00;;;34.40
16956;BMP180;8594;52.052;8.354;2023-09-08T11:13:19;100913.00;;;34.10
16956;BMP180;8594;52.052;8.354;2023-09-08T11:15:46;100912.00;;;33.80
16956;BMP180;8594;52.052;8.354;2023-09-08T11:18:12;100912.00;;;34.50
16956;BMP180;8594;52.052;8.354;2023-09-08T11:20:39;100913.00;;;34.60
16956;BMP180;8594;52.052;8.354;2023-09-08T11:23:07;100904.00;;;34.40
16956;BMP180;8594;52.052;8.354;2023-09-08T11:25:34;100911.00;;;34.70
16956;BMP180;8594;52.052;8.354;2023-09-08T11:28:01;100909.00;;;34.70
16956;BMP180;8594;52.052;8.354;2023-09-08T11:30:29;100909.00;;;35.00
16956;BMP180;8594;52.052;8.354;2023-09-08T11:32:56;100909.00;;;35.10
16956;BMP180;8594;52.052;8.354;2023-09-08T11:35:27;100904.00;;;35.10
16956;BMP180;8594;52.052;8.354;2023-09-08T11:37:59;100907.00;;;35.20
16956;BMP180;8594;52.052;8.354;2023-09-08T11:40:28;100897.00;;;35.00
16956;BMP180;8594;52.052;8.354;2023-09-08T11:42:56;100903.00;;;35.00
16956;BMP180;8594;52.052;8.354;2023-09-08T11:45:24;100898.00;;;35.00
16956;BMP180;8594;52.052;8.354;2023-09-08T11:47:52;100893.00;;;35.00
16956;BMP180;8594;52.052;8.354;2023-09-08T11:50:20;100891.00;;;35.00
16956;BMP180;8594;52.052;8.354;2023-09-08T11:52:48;100883.00;;;34.70
16956;BMP180;8594;52.052;8.354;2023-09-08T11:55:16;100885.00;;;34.60
16956;BMP180;8594;52.052;8.354;2023-09-08T11:57:48;100890.00;;;35.00
16956;BMP180;8594;52.052;8.354;2023-09-08T12:00:18;100883.00;;;34.90
16956;BMP180;8594;52.052;8.354;2023-09-08T12:02:49;100887.00;;;34.80
16956;BMP180;8594;52.052;8.354;2023-09-08T12:05:22;100882.00;;;35.00
16956;BMP180;8594;52.052;8.354;2023-09-08T12:07:51;100884.00;;;35.30
16956;BMP180;8594;52.052;8.354;2023-09-08T12:10:18;100873.00;;;34.70
16956;BMP180;8594;52.052;8.354;2023-09-08T12:12:47;100873.00;;;35.00
16956;BMP180;8594;52.052;8.354;2023-09-08T12:15:30;100873.00;;;34.20
16956;BMP180;8594;52.052;8.354;2023-09-08T12:17:59;100870.00;;;34.80
16956;BMP180;8594;52.052;8.354;2023-09-08T12:20:27;100874.00;;;35.00
16956;BMP180;8594;52.052;8.354;2023-09-08T12:22:57;100873.00;;;34.40
16956;BMP180;8594;52.052;8.354;2023-09-08T12:25:24;100872.00;;;34.10
16956;BMP180;8594;52.052;8.354;2023-09-08T12:27:54;100879.00;;;35.00
16956;BMP180;8594;52.052;8.354;2023-09-08T12:30:23;100877.00;;;35.10
16956;BMP180;8594;52.052;8.354;2023-09-08T12:32:57;100880.00;;;34.90
16956;BMP180;8594;52.052;8.354;2023-09-08T12:35:27;100870.00;;;35.00
16956;BMP180;8594;52.052;8.354;2023-09-08T12:37:58;100874.00;;;35.00
16956;BMP180;8594;52.052;8.354;2023-09-08T12:40:26;100872.00;;;35.00
16956;BMP180;8594;52.052;8.354;2023-09-08T12:42:53;100869.00;;;35.10
16956;BMP180;8594;52.052;8.354;2023-09-08T12:45:22;100875.00;;;34.90
16956;BMP180;8594;52.052;8.354;2023-09-08T12:47:49;100867.00;;;34.90
16956;BMP180;8594;52.052;8.354;2023-09-08T12:50:16;100862.00;;;35.20
16956;BMP180;8594;52.052;8.354;2023-09-08T12:52:44;100863.00;;;34.90
16956;BMP180;8594;52.052;8.354;2023-09-08T12:55:11;100859.00;;;35.00
16956;BMP180;8594;52.052;8.354;2023-09-08T12:57:38;100858.00;;;35.00
16956;BMP180;8594;52.052;8.354;2023-09-08T13:00:07;100853.00;;;34.90
16956;BMP180;8594;52.052;8.354;2023-09-08T13:02:34;100855.00;;;35.20
16956;BMP180;8594;52.052;8.354;2023-09-08T13:05:02;100852.00;;;34.80
16956;BMP180;8594;52.052;8.354;2023-09-08T13:07:29;100853.00;;;34.90
16956;BMP180;8594;52.052;8.354;2023-09-08T13:09:57;100851.00;;;35.00
16956;BMP180;8594;52.052;8.354;2023-09-08T13:12:24;100852.00;;;35.00
16956;BMP180;8594;52.052;8.354;2023-09-08T13:14:51;100850.00;;;35.10
16956;BMP180;8594;52.052;8.354;2023-09-08T13:17:18;100852.00;;;35.20
16956;BMP180;8594;52.052;8.354;2023-09-08T13:19:46;100851.00;;;35.40
16956;BMP180;8594;52.052;8.354;2023-09-08T13:22:13;100853.00;;;35.10
16956;BMP180;8594;52.052;8.354;2023-09-08T13:24:40;100845.00;;;35.00
16956;BMP180;8594;52.052;8.354;2023-09-08T13:27:09;100838.00;;;35.00
16956;BMP180;8594;52.052;8.354;2023-09-08T13:29:37;100839.00;;;34.90
16956;BMP180;8594;52.052;8.354;2023-09-08T13:32:05;100838.00;;;35.10
16956;BMP180;8594;52.052;8.354;2023-09-08T13:34:32;100836.00;;;35.00
16956;BMP180;8594;52.052;8.354;2023-09-08T13:37:01;100829.00;;;35.00
16956;BMP180;8594;52.052;8.354;2023-09-08T13:39:28;100825.00;;;34.60
16956;BMP180;8594;52.052;8.354;2023-09-08T13:41:58;100833.00;;;34.70
16956;BMP180;8594;52.052;8.354;2023-09-08T13:44:27;100829.00;;;35.00
16956;BMP180;8594;52.052;8.354;2023-09-08T13:46:54;100833.00;;;34.90
16956;BMP180;8594;52.052;8.354;2023-09-08T13:49:22;100826.00;;;35.00
16956;BMP180;8594;52.052;8.354;2023-09-08T13:51:49;100829.00;;;35.20
16956;BMP180;8594;52.052;8.354;2023-09-08T13:54:17;100826.00;;;35.10
16956;BMP180;8594;52.052;8.354;2023-09-08T13:56:44;100816.00;;;35.20
16956;BMP180;8594;52.052;8.354;2023-09-08T13:59:11;100818.00;;;35.30
16956;BMP180;8594;52.052;8.354;2023-09-08T14:01:39;100817.00;;;35.10
16956;BMP180;8594;52.052;8.354;2023-09-08T14:04:07;100815.00;;;35.10
16956;BMP180;8594;52.052;8.354;2023-09-08T14:06:33;100816.00;;;35.10
16956;BMP180;8594;52.052;8.354;2023-09-08T14:09:00;100812.00;;;35.20
16956;BMP180;8594;52.052;8.354;2023-09-08T14:11:27;100819.00;;;35.20
16956;BMP180;8594;52.052;8.354;2023-09-08T14:13:54;100825.00;;;34.80